Time;durP1;ratioP1;P1;durP2;ratioP2;P2;SDS_P1;SDS_P2;PMS_P1;PMS_P2;Temp;Humidity;BMP_temperature;BMP_pressure;BME280_temperature;BME280_humidity;BME280_pressure;Samples;Min_cycle;Max_cycle;Signal;HPM_P1;HPM_P2
2023/03/23 00:00:48;;;;;;;;;;;;;;;6.31;100.00;93347.59;5030492;28;19921;-38
2023/03/23 00:03:13;;;;;;;;;;;;;;;6.33;100.00;93355.28;5030178;28;19921;-38
2023/03/23 00:05:41;;;;;;;;;;;;;;;6.47;100.00;93349.31;5030703;28;19924;-38
2023/03/23 00:08:06;;;;;;;;;;;;;;;6.36;100.00;93349.50;5030098;28;20606;-38
2023/03/23 00:10:34;;;;;;;;;;;;;;;6.32;100.00;93353.81;5030277;28;19913;-38
2023/03/23 00:13:02;;;;;;;;;;;;;;;6.36;100.00;93354.25;5030040;28;19927;-38
2023/03/23 00:15:30;;;;;;;;;;;;;;;6.37;100.00;93358.44;5030353;28;19932;-38
2023/03/23 00:18:02;;;;;;;;;;;;;;;6.35;100.00;93353.50;5030021;28;19913;-38
2023/03/23 00:20:29;;;;;;;;;;;;;;;6.34;100.00;93359.50;5030054;28;19917;-38
2023/03/23 00:23:00;;;;;;;;;;;;;;;6.30;100.00;93362.56;5030142;28;19921;-38
2023/03/23 00:25:25;;;;;;;;;;;;;;;6.34;100.00;93362.25;5029937;28;19923;-38
2023/03/23 00:27:50;;;;;;;;;;;;;;;6.23;100.00;93362.44;5029959;28;19995;-38
2023/03/23 00:30:17;;;;;;;;;;;;;;;6.37;100.00;93355.72;5029978;28;20336;-38
2023/03/23 00:32:42;;;;;;;;;;;;;;;6.24;100.00;93361.19;5029731;28;20360;-38
2023/03/23 00:35:08;;;;;;;;;;;;;;;6.34;100.00;93357.53;5048437;28;19991;-38
2023/03/23 00:37:35;;;;;;;;;;;;;;;6.33;100.00;93350.53;5049679;28;19921;-38
2023/03/23 00:40:00;;;;;;;;;;;;;;;6.43;100.00;93353.63;5049454;28;19916;-38
2023/03/23 00:42:26;;;;;;;;;;;;;;;6.39;100.00;93353.22;5049511;28;19966;-38
2023/03/23 00:44:59;;;;;;;;;;;;;;;6.29;100.00;93352.13;5049338;28;19920;-38
2023/03/23 00:47:24;;;;;;;;;;;;;;;6.23;100.00;93351.47;5049775;28;20294;-38
2023/03/23 00:49:52;;;;;;;;;;;;;;;6.18;100.00;93347.56;5049294;28;20011;-38
2023/03/23 00:52:17;;;;;;;;;;;;;;;6.39;100.00;93350.47;5039986;28;20156;-38
2023/03/23 00:54:42;;;;;;;;;;;;;;;6.20;100.00;93349.75;5031338;28;20008;-38
2023/03/23 00:57:08;;;;;;;;;;;;;;;6.22;100.00;93337.00;5049404;28;20384;-38
2023/03/23 00:59:33;;;;;;;;;;;;;;;6.37;100.00;93339.25;5049437;28;19913;-39
2023/03/23 01:01:58;;;;;;;;;;;;;;;6.43;100.00;93335.16;5049398;28;20324;-38
2023/03/23 01:04:23;;;;;;;;;;;;;;;6.43;100.00;93334.44;5033905;28;20305;-38
2023/03/23 01:06:50;;;;;;;;;;;;;;;6.53;100.00;93330.75;5029635;28;19948;-38
2023/03/23 01:09:16;;;;;;;;;;;;;;;6.47;100.00;93332.13;5029091;28;19917;-38
2023/03/23 01:11:45;;;;;;;;;;;;;;;6.53;100.00;93330.75;5029306;28;19920;-38
2023/03/23 01:14:10;;;;;;;;;;;;;;;6.47;100.00;93329.38;5029088;28;20427;-38
2023/03/23 01:16:35;;;;;;;;;;;;;;;6.42;100.00;93332.94;5029372;28;19917;-38
2023/03/23 01:19:01;;;;;;;;;;;;;;;6.27;100.00;93336.19;5028983;28;19913;-38
2023/03/23 01:21:26;;;;;;;;;;;;;;;6.27;100.00;93329.97;5029204;28;19958;-38
2023/03/23 01:23:52;;;;;;;;;;;;;;;6.36;100.00;93333.06;5029062;28;19913;-38
2023/03/23 01:26:21;;;;;;;;;;;;;;;6.37;100.00;93331.03;5029432;28;19917;-38
2023/03/23 01:28:46;;;;;;;;;;;;;;;6.37;100.00;93334.53;5028904;28;19998;-38
2023/03/23 01:31:13;;;;;;;;;;;;;;;6.42;100.00;93330.22;5028706;28;19956;-38
2023/03/23 01:33:39;;;;;;;;;;;;;;;6.38;100.00;93332.53;5035910;28;19921;-38
2023/03/23 01:36:05;;;;;;;;;;;;;;;6.69;100.00;93337.94;5064257;28;19917;-38
2023/03/23 01:38:30;;;;;;;;;;;;;;;6.65;100.00;93340.25;5049046;28;19923;-38
2023/03/23 01:40:56;;;;;;;;;;;;;;;6.55;100.00;93332.97;5048745;28;19999;-38
2023/03/23 01:43:21;;;;;;;;;;;;;;;6.50;100.00;93336.53;5049014;28;19917;-38
2023/03/23 01:45:46;;;;;;;;;;;;;;;6.47;100.00;93332.13;5049134;28;19940;-38
2023/03/23 01:48:28;;;;;;;;;;;;;;;6.46;100.00;93336.88;5048680;28;19970;-38
2023/03/23 01:50:53;;;;;;;;;;;;;;;6.38;100.00;93346.97;5064341;28;19944;-38
2023/03/23 01:53:20;;;;;;;;;;;;;;;6.33;100.00;93345.06;5030629;28;19983;-38
2023/03/23 01:55:49;;;;;;;;;;;;;;;6.37;100.00;93344.75;5044276;28;19928;-38
2023/03/23 01:58:15;;;;;;;;;;;;;;;6.33;100.00;93336.09;5031745;28;19913;-38
2023/03/23 02:00:42;;;;;;;;;;;;;;;6.35;100.00;93333.56;5047687;28;19931;-38
2023/03/23 02:03:09;;;;;;;;;;;;;;;6.27;100.00;93338.94;5047727;28;19924;-38
2023/03/23 02:05:36;;;;;;;;;;;;;;;6.26;100.00;93337.44;5032509;28;19913;-38
2023/03/23 02:08:02;;;;;;;;;;;;;;;6.33;100.00;93344.31;5032280;28;20389;-38
2023/03/23 02:10:28;;;;;;;;;;;;;;;6.32;100.00;93348.34;5047614;28;19963;-38
2023/03/23 02:12:54;;;;;;;;;;;;;;;6.27;100.00;93344.41;5032437;28;19996;-38
2023/03/23 02:15:20;;;;;;;;;;;;;;;6.37;100.00;93342.75;5032581;28;20004;-38
2023/03/23 02:17:45;;;;;;;;;;;;;;;6.37;100.00;93342.00;5047489;28;19986;-38
2023/03/23 02:20:29;;;;;;;;;;;;;;;6.32;100.00;93343.59;5032131;28;19916;-38
2023/03/23 02:22:55;;;;;;;;;;;;;;;6.25;100.00;93338.72;5032139;28;19913;-38
2023/03/23 02:25:35;;;;;;;;;;;;;;;6.28;100.00;93336.94;5032447;28;19949;-38
2023/03/23 02:28:01;;;;;;;;;;;;;;;6.20;100.00;93325.84;5032179;28;20290;-38
2023/03/23 02:30:36;;;;;;;;;;;;;;;6.05;100.00;93336.53;5032129;28;20012;-38
2023/03/23 02:33:08;;;;;;;;;;;;;;;5.96;100.00;93337.69;5033083;28;20397;-38
2023/03/23 02:35:42;;;;;;;;;;;;;;;5.81;100.00;93334.63;5052160;28;19920;-38
2023/03/23 02:38:14;;;;;;;;;;;;;;;5.85;100.00;93346.06;5067448;28;20012;-38
2023/03/23 02:40:40;;;;;;;;;;;;;;;5.92;100.00;93348.19;5067299;28;19913;-38
2023/03/23 02:43:06;;;;;;;;;;;;;;;5.93;100.00;93340.72;5067174;28;20679;-38
2023/03/23 02:45:32;;;;;;;;;;;;;;;5.87;100.00;93343.53;5051964;28;20019;-38
2023/03/23 02:47:57;;;;;;;;;;;;;;;5.70;100.00;93353.97;5067104;28;20028;-38
2023/03/23 02:50:23;;;;;;;;;;;;;;;5.48;100.00;93361.75;5051679;28;19912;-38
2023/03/23 02:52:48;;;;;;;;;;;;;;;5.66;100.00;93356.28;5037893;28;19971;-38
2023/03/23 02:55:14;;;;;;;;;;;;;;;5.35;100.00;93360.41;5051101;28;19927;-38
2023/03/23 02:57:39;;;;;;;;;;;;;;;5.27;100.00;93361.50;5031520;28;20008;-38
2023/03/23 03:00:09;;;;;;;;;;;;;;;5.15;100.00;93360.19;5031308;28;19921;-38
2023/03/23 03:02:40;;;;;;;;;;;;;;;5.05;100.00;93364.50;5031698;28;19951;-38
2023/03/23 03:05:18;;;;;;;;;;;;;;;5.05;100.00;93359.03;5046477;28;20378;-38
2023/03/23 03:07:48;;;;;;;;;;;;;;;5.10;100.00;93367.19;5030949;28;19913;-38
2023/03/23 03:10:19;;;;;;;;;;;;;;;5.00;100.00;93368.78;5046797;28;19913;-38
2023/03/23 03:12:56;;;;;;;;;;;;;;;4.99;100.00;93372.03;5031305;28;19913;-38
2023/03/23 03:15:39;;;;;;;;;;;;;;;4.97;100.00;93372.56;5031400;28;19913;-38
2023/03/23 03:18:04;;;;;;;;;;;;;;;4.88;100.00;93377.63;5031227;28;19924;-38
2023/03/23 03:20:30;;;;;;;;;;;;;;;4.99;100.00;93382.97;5031071;28;19916;-38
2023/03/23 03:22:56;;;;;;;;;;;;;;;4.89;100.00;93382.59;5046448;28;19917;-38
2023/03/23 03:25:23;;;;;;;;;;;;;;;4.87;100.00;93379.66;5046574;28;19913;-38
2023/03/23 03:27:49;;;;;;;;;;;;;;;5.01;100.00;93378.47;5031332;28;19920;-38
2023/03/23 03:30:16;;;;;;;;;;;;;;;4.83;100.00;93364.78;5046617;28;19917;-38
2023/03/23 03:32:43;;;;;;;;;;;;;;;4.71;100.00;93371.59;5046267;28;19917;-39
2023/03/23 03:35:09;;;;;;;;;;;;;;;4.75;100.00;93375.53;5050118;28;19912;-39
2023/03/23 03:37:37;;;;;;;;;;;;;;;4.96;100.00;93375.81;5066364;28;19916;-39
2023/03/23 03:40:10;;;;;;;;;;;;;;;4.94;100.00;93370.09;5065896;28;20379;-39
2023/03/23 03:42:36;;;;;;;;;;;;;;;4.97;100.00;93372.56;5050659;28;19913;-39
2023/03/23 03:45:02;;;;;;;;;;;;;;;4.82;100.00;93377.69;5050498;28;19917;-39
2023/03/23 03:47:27;;;;;;;;;;;;;;;4.87;100.00;93367.97;5050927;28;19970;-39
2023/03/23 03:49:52;;;;;;;;;;;;;;;4.85;100.00;93365.00;5065567;28;19913;-39
2023/03/23 03:52:17;;;;;;;;;;;;;;;4.79;100.00;93375.22;5040613;28;19924;-39
2023/03/23 03:54:43;;;;;;;;;;;;;;;4.93;100.00;93369.38;5030716;28;20286;-39
2023/03/23 03:57:08;;;;;;;;;;;;;;;4.79;100.00;93375.22;5030413;28;19917;-39
2023/03/23 03:59:34;;;;;;;;;;;;;;;4.91;100.00;93373.88;5030443;28;19963;-40
2023/03/23 04:01:59;;;;;;;;;;;;;;;4.84;100.00;93375.19;5030464;28;20294;-39
2023/03/23 04:04:24;;;;;;;;;;;;;;;4.83;100.00;93378.44;5030231;28;20362;-39
2023/03/23 04:06:50;;;;;;;;;;;;;;;4.85;100.00;93376.66;5030599;28;19917;-39
2023/03/23 04:09:15;;;;;;;;;;;;;;;4.86;100.00;93382.88;5030077;28;19980;-39
2023/03/23 04:11:40;;;;;;;;;;;;;;;4.85;100.00;93378.66;5030202;28;19917;-39
2023/03/23 04:14:06;;;;;;;;;;;;;;;4.91;100.00;93376.63;5030120;28;19924;-40
2023/03/23 04:16:34;;;;;;;;;;;;;;;4.89;100.00;93381.84;5030277;28;19921;-39
2023/03/23 04:18:59;;;;;;;;;;;;;;;4.95;100.00;93375.06;5030071;28;19914;-39
2023/03/23 04:21:28;;;;;;;;;;;;;;;4.91;100.00;93376.63;5029473;28;20312;-39
2023/03/23 04:23:53;;;;;;;;;;;;;;;4.91;100.00;93374.63;5029951;28;19913;-39
2023/03/23 04:26:19;;;;;;;;;;;;;;;4.95;100.00;93366.88;5045295;28;19913;-39
2023/03/23 04:28:44;;;;;;;;;;;;;;;4.89;100.00;93384.59;5030087;28;19917;-39
2023/03/23 04:31:12;;;;;;;;;;;;;;;4.84;100.00;93382.66;5029777;28;20316;-39
2023/03/23 04:33:40;;;;;;;;;;;;;;;4.70;100.00;93381.06;5036363;28;20560;-39
2023/03/23 04:36:06;;;;;;;;;;;;;;;4.77;100.00;93385.94;5049633;28;19917;-39
2023/03/23 04:38:33;;;;;;;;;;;;;;;4.73;100.00;93383.50;5049932;28;19920;-39
2023/03/23 04:41:01;;;;;;;;;;;;;;;4.75;100.00;93388.44;5049824;28;19913;-39
2023/03/23 04:43:27;;;;;;;;;;;;;;;4.78;100.00;93387.44;5049603;28;19920;-39
2023/03/23 04:45:55;;;;;;;;;;;;;;;4.85;100.00;93387.59;5049403;28;19916;-39
2023/03/23 04:48:22;;;;;;;;;;;;;;;4.84;100.00;93390.84;5043037;28;19944;-39
2023/03/23 04:50:48;;;;;;;;;;;;;;;4.58;100.00;93388.63;5029680;28;19925;-39
2023/03/23 04:53:13;;;;;;;;;;;;;;;4.41;100.00;93386.06;5029672;28;19913;-39
2023/03/23 04:55:38;;;;;;;;;;;;;;;4.65;100.00;93398.25;5029684;28;20370;-39
2023/03/23 04:58:05;;;;;;;;;;;;;;;4.66;100.00;93394.28;5029430;28;20359;-39
2023/03/23 05:00:31;;;;;;;;;;;;;;;4.63;100.00;93399.50;5029344;28;19932;-39
2023/03/23 05:02:56;;;;;;;;;;;;;;;4.70;100.00;93397.47;5029160;28;19918;-39
2023/03/23 05:05:22;;;;;;;;;;;;;;;4.79;100.00;93402.59;5029324;28;19925;-39
2023/03/23 05:07:47;;;;;;;;;;;;;;;4.93;100.00;93401.47;5029596;28;19925;-39
2023/03/23 05:10:13;;;;;;;;;;;;;;;5.05;100.00;93408.28;5029454;28;19913;-39
2023/03/23 05:12:38;;;;;;;;;;;;;;;5.12;100.00;93404.97;5029363;28;20007;-39
2023/03/23 05:15:05;;;;;;;;;;;;;;;5.12;100.00;93408.47;5029072;28;19917;-39
2023/03/23 05:17:32;;;;;;;;;;;;;;;5.13;100.00;93407.19;5029173;28;20389;-39
2023/03/23 05:19:58;;;;;;;;;;;;;;;5.10;100.00;93416.44;5029431;28;20066;-39
2023/03/23 05:22:24;;;;;;;;;;;;;;;5.33;100.00;93420.41;5029380;28;19914;-39
2023/03/23 05:24:51;;;;;;;;;;;;;;;5.41;100.00;93419.84;5044400;28;19971;-39
2023/03/23 05:27:17;;;;;;;;;;;;;;;5.32;100.00;93426.41;5029245;28;19966;-39
2023/03/23 05:29:42;;;;;;;;;;;;;;;5.43;100.00;93425.53;5029428;28;19967;-39
2023/03/23 05:32:08;;;;;;;;;;;;;;;5.49;100.00;93424.22;5031719;28;20377;-39
2023/03/23 05:34:33;;;;;;;;;;;;;;;5.73;100.00;93426.91;5047411;28;20415;-39
2023/03/23 05:37:00;;;;;;;;;;;;;;;6.03;100.00;93432.25;5053167;28;19978;-39
2023/03/23 05:39:26;;;;;;;;;;;;;;;6.45;100.00;93430.63;5052901;28;19920;-39
2023/03/23 05:41:51;;;;;;;;;;;;;;;6.91;100.00;93430.09;5052839;28;19917;-39
2023/03/23 05:44:16;;;;;;;;;;;;;;;7.05;98.54;93428.13;5049093;28;19917;-39
2023/03/23 05:46:43;;;;;;;;;;;;;;;7.29;97.34;93433.44;5032805;28;20107;-39
2023/03/23 05:49:08;;;;;;;;;;;;;;;7.66;96.36;93435.97;5032677;28;19921;-39
2023/03/23 05:51:34;;;;;;;;;;;;;;;7.78;95.34;93434.44;5032552;28;20000;-39
2023/03/23 05:54:00;;;;;;;;;;;;;;;7.84;94.04;93439.84;5032748;28;19929;-39
2023/03/23 05:56:25;;;;;;;;;;;;;;;8.03;94.16;93438.44;5032529;28;19924;-39
2023/03/23 05:58:51;;;;;;;;;;;;;;;8.22;91.26;93443.78;5032956;28;19917;-39
2023/03/23 06:01:16;;;;;;;;;;;;;;;8.77;89.71;93439.75;5032279;28;19921;-39
2023/03/23 06:03:42;;;;;;;;;;;;;;;8.89;86.75;93442.97;5032797;28;19919;-39
2023/03/23 06:06:09;;;;;;;;;;;;;;;8.92;86.78;93444.66;5032777;28;20321;-39
2023/03/23 06:08:36;;;;;;;;;;;;;;;8.50;87.07;93452.16;5032650;28;19920;-39
2023/03/23 06:11:02;;;;;;;;;;;;;;;8.64;87.48;93436.34;5032171;28;20006;-39
2023/03/23 06:13:27;;;;;;;;;;;;;;;8.84;86.79;93441.84;5032522;28;19987;-39
2023/03/23 06:15:57;;;;;;;;;;;;;;;8.78;85.75;93446.75;5032179;28;19924;-39
2023/03/23 06:18:23;;;;;;;;;;;;;;;8.80;86.05;93454.47;5032282;28;19917;-39
2023/03/23 06:20:48;;;;;;;;;;;;;;;8.73;86.97;93449.63;5032170;28;19921;-39
2023/03/23 06:23:13;;;;;;;;;;;;;;;8.86;87.57;93453.06;5032119;28;19917;-39
2023/03/23 06:25:39;;;;;;;;;;;;;;;8.90;84.78;93456.19;5032168;28;19913;-39
2023/03/23 06:28:04;;;;;;;;;;;;;;;8.88;85.65;93455.28;5032281;28;19970;-39
2023/03/23 06:30:30;;;;;;;;;;;;;;;8.82;86.13;93452.66;5032260;28;20381;-39
2023/03/23 06:32:55;;;;;;;;;;;;;;;8.84;89.09;93447.34;5032407;28;20009;-39
2023/03/23 06:35:21;;;;;;;;;;;;;;;9.02;88.42;93449.16;5051990;28;19916;-39
2023/03/23 06:37:46;;;;;;;;;;;;;;;8.72;87.33;93448.91;5051896;28;19916;-39
2023/03/23 06:40:12;;;;;;;;;;;;;;;8.82;88.90;93454.66;5050458;28;19919;-39
2023/03/23 06:42:37;;;;;;;;;;;;;;;8.71;87.08;93454.91;5031108;28;19924;-39
2023/03/23 06:45:03;;;;;;;;;;;;;;;8.67;87.86;93463.53;5031610;28;19925;-39
2023/03/23 06:47:32;;;;;;;;;;;;;;;8.89;88.39;93456.75;5032082;28;19928;-39
2023/03/23 06:49:57;;;;;;;;;;;;;;;9.16;87.01;93458.81;5031907;28;20357;-39
2023/03/23 06:52:23;;;;;;;;;;;;;;;9.22;85.76;93460.69;5031745;28;19975;-39
2023/03/23 06:54:49;;;;;;;;;;;;;;;9.35;83.47;93455.09;5031841;28;19952;-39
2023/03/23 06:57:14;;;;;;;;;;;;;;;9.46;84.66;93474.09;5031400;28;20396;-39
2023/03/23 06:59:39;;;;;;;;;;;;;;;9.48;82.22;93460.50;5031316;28;19967;-39
2023/03/23 07:02:06;;;;;;;;;;;;;;;9.66;79.02;93476.03;5032004;28;20152;-39
2023/03/23 07:04:32;;;;;;;;;;;;;;;9.67;80.56;93470.00;5031829;28;20054;-39
2023/03/23 07:06:57;;;;;;;;;;;;;;;9.85;80.00;93462.75;5031539;28;20503;-39
2023/03/23 07:09:22;;;;;;;;;;;;;;;10.13;81.22;93464.75;5031753;28;20317;-39
2023/03/23 07:11:48;;;;;;;;;;;;;;;10.07;77.88;93461.41;5031778;28;20440;-39
2023/03/23 07:14:14;;;;;;;;;;;;;;;10.15;77.97;93460.16;5031627;28;19923;-39
2023/03/23 07:16:40;;;;;;;;;;;;;;;10.43;79.25;93467.63;5046887;28;20282;-39
2023/03/23 07:19:05;;;;;;;;;;;;;;;10.76;77.55;93474.91;5031367;28;19924;-39
2023/03/23 07:21:31;;;;;;;;;;;;;;;10.55;75.84;93468.75;5031228;28;19917;-39
2023/03/23 07:23:56;;;;;;;;;;;;;;;11.19;73.09;93469.25;5031398;28;19949;-39
2023/03/23 07:26:22;;;;;;;;;;;;;;;11.14;72.02;93472.16;5031438;28;19920;-39
2023/03/23 07:28:47;;;;;;;;;;;;;;;11.79;73.05;93476.78;5030897;28;20357;-39
2023/03/23 07:31:13;;;;;;;;;;;;;;;11.71;72.76;93473.28;5030594;28;20008;-39
2023/03/23 07:33:38;;;;;;;;;;;;;;;11.48;70.52;93472.53;5037696;28;19917;-39
2023/03/23 07:36:04;;;;;;;;;;;;;;;11.03;72.32;93475.28;5050552;28;20397;-39
2023/03/23 07:38:29;;;;;;;;;;;;;;;10.80;73.19;93478.03;5032446;28;19913;-39
2023/03/23 07:40:55;;;;;;;;;;;;;;;10.74;73.92;93480.25;5030624;28;19917;-39
2023/03/23 07:43:20;;;;;;;;;;;;;;;10.93;74.02;93482.66;5030765;28;19913;-39
2023/03/23 07:45:46;;;;;;;;;;;;;;;10.84;72.92;93488.72;5030704;28;19913;-39
2023/03/23 07:48:12;;;;;;;;;;;;;;;10.93;73.75;93490.94;5030437;28;19924;-39
2023/03/23 07:50:37;;;;;;;;;;;;;;;11.14;72.88;93492.25;5029904;28;19921;-39
2023/03/23 07:53:03;;;;;;;;;;;;;;;11.09;72.45;93497.94;5030429;28;20392;-39
2023/03/23 07:55:28;;;;;;;;;;;;;;;11.16;72.47;93489.69;5029228;28;19917;-39
2023/03/23 07:57:53;;;;;;;;;;;;;;;10.85;72.75;93496.44;5030104;28;19928;-39
2023/03/23 08:00:19;;;;;;;;;;;;;;;10.73;73.19;93495.31;5030297;28;19932;-39
2023/03/23 08:02:48;;;;;;;;;;;;;;;10.82;73.87;93496.81;5030333;28;20421;-39
2023/03/23 08:05:14;;;;;;;;;;;;;;;10.47;74.77;93499.09;5030171;28;19917;-39
2023/03/23 08:07:40;;;;;;;;;;;;;;;10.39;73.69;93506.63;5029971;28;20442;-39
2023/03/23 08:10:11;;;;;;;;;;;;;;;10.29;75.32;93508.41;5029336;28;21458;-39
2023/03/23 08:12:37;;;;;;;;;;;;;;;10.46;74.34;93508.66;5030260;28;19967;-39
2023/03/23 08:15:03;;;;;;;;;;;;;;;10.39;75.31;93511.41;5029811;28;19917;-39
2023/03/23 08:17:28;;;;;;;;;;;;;;;10.54;74.57;93511.47;5029981;28;20364;-39
2023/03/23 08:19:54;;;;;;;;;;;;;;;10.86;74.37;93508.22;5029732;28;19921;-39
2023/03/23 08:22:19;;;;;;;;;;;;;;;11.66;72.44;93507.38;5029964;28;19937;-39
2023/03/23 08:24:44;;;;;;;;;;;;;;;12.39;69.36;93511.13;5029841;28;20294;-39
2023/03/23 08:27:10;;;;;;;;;;;;;;;13.12;66.15;93515.41;5029458;28;20349;-39
2023/03/23 08:29:35;;;;;;;;;;;;;;;14.15;63.47;93514.38;5029848;28;19917;-39
2023/03/23 08:32:02;;;;;;;;;;;;;;;16.10;57.30;93511.56;5029152;28;20385;-39
2023/03/23 08:34:28;;;;;;;;;;;;;;;16.60;56.16;93507.72;5042788;28;19921;-39
2023/03/23 08:36:54;;;;;;;;;;;;;;;18.17;50.42;93515.19;5049563;28;19917;-39
2023/03/23 08:39:22;;;;;;;;;;;;;;;19.19;47.58;93512.78;5049473;28;20461;-39
2023/03/23 08:41:48;;;;;;;;;;;;;;;18.97;45.13;93519.06;5049277;28;19917;-39
2023/03/23 08:44:13;;;;;;;;;;;;;;;17.40;47.35;93521.09;5049133;28;19967;-39
2023/03/23 08:46:39;;;;;;;;;;;;;;;16.81;50.56;93523.81;5049238;28;19916;-39
2023/03/23 08:49:05;;;;;;;;;;;;;;;16.56;52.31;93507.41;5049133;28;20003;-39
2023/03/23 08:51:31;;;;;;;;;;;;;;;16.20;53.61;93521.41;5046213;28;20293;-39
2023/03/23 08:53:56;;;;;;;;;;;;;;;16.29;53.44;93519.97;5029112;28;19936;-39
2023/03/23 08:56:22;;;;;;;;;;;;;;;17.67;50.17;93523.66;5044310;28;19921;-39
2023/03/23 08:58:47;;;;;;;;;;;;;;;17.42;49.67;93512.13;5049329;28;20351;-39
2023/03/23 09:01:13;;;;;;;;;;;;;;;17.66;51.37;93513.09;5048854;28;19932;-39
2023/03/23 09:03:39;;;;;;;;;;;;;;;18.09;47.58;93517.44;5048968;28;20082;-38
2023/03/23 09:06:05;;;;;;;;;;;;;;;19.48;47.50;93513.28;5048542;28;19947;-39
2023/03/23 09:08:31;;;;;;;;;;;;;;;20.42;42.12;93505.63;5049176;28;19912;-39
2023/03/23 09:10:59;;;;;;;;;;;;;;;20.80;36.89;93505.03;5049094;28;19919;-39
2023/03/23 09:13:25;;;;;;;;;;;;;;;21.21;39.99;93502.44;5049056;28;19920;-39
2023/03/23 09:15:51;;;;;;;;;;;;;;;22.68;36.57;93501.84;5048789;28;20313;-39
2023/03/23 09:18:18;;;;;;;;;;;;;;;22.03;36.86;93504.13;5048758;28;19912;-39
2023/03/23 09:20:43;;;;;;;;;;;;;;;21.13;36.42;93508.34;5048813;28;20384;-39
2023/03/23 09:23:08;;;;;;;;;;;;;;;20.34;38.50;93505.88;5048172;28;19963;-39
2023/03/23 09:25:34;;;;;;;;;;;;;;;18.41;42.34;93511.22;5029101;28;19921;-39
2023/03/23 09:27:59;;;;;;;;;;;;;;;18.01;43.97;93509.25;5029293;28;19917;-39
2023/03/23 09:30:28;;;;;;;;;;;;;;;17.60;46.23;93507.84;5028825;28;19959;-39
2023/03/23 09:32:53;;;;;;;;;;;;;;;18.41;43.64;93499.31;5028513;28;19921;-39
2023/03/23 09:35:21;;;;;;;;;;;;;;;17.94;45.87;93501.06;5048819;28;20015;-39
2023/03/23 09:37:46;;;;;;;;;;;;;;;18.32;46.53;93494.53;5048961;28;19917;-39
2023/03/23 09:40:14;;;;;;;;;;;;;;;17.67;46.54;93497.81;5049121;28;20450;-39
2023/03/23 09:42:40;;;;;;;;;;;;;;;16.65;49.17;93483.66;5064471;28;19978;-39
2023/03/23 09:45:09;;;;;;;;;;;;;;;16.55;49.90;93482.91;5048555;28;20393;-39
2023/03/23 09:47:35;;;;;;;;;;;;;;;16.07;48.65;93490.47;5048938;28;20379;-39
2023/03/23 09:50:03;;;;;;;;;;;;;;;15.68;49.91;93493.16;5048916;28;19944;-39
2023/03/23 09:52:37;;;;;;;;;;;;;;;16.12;50.93;93492.97;5037931;28;20353;-39
2023/03/23 09:55:03;;;;;;;;;;;;;;;15.94;49.64;93492.34;5048627;28;19917;-39
2023/03/23 09:57:31;;;;;;;;;;;;;;;15.98;51.65;93489.16;5048925;28;20281;-39
2023/03/23 09:59:58;;;;;;;;;;;;;;;15.72;50.79;93490.66;5048491;28;20592;-39
2023/03/23 10:02:39;;;;;;;;;;;;;;;15.47;49.65;93495.72;5064539;28;19920;-39
2023/03/23 10:05:30;;;;;;;;;;;;;;;15.27;50.39;93494.13;5063910;28;19913;-39
2023/03/23 10:07:55;;;;;;;;;;;;;;;15.34;49.40;93489.78;5048451;28;19917;-39
2023/03/23 10:10:21;;;;;;;;;;;;;;;14.50;51.03;93487.38;5064236;28;19913;-38
2023/03/23 10:12:51;;;;;;;;;;;;;;;14.48;52.46;93489.25;5048920;28;19920;-38
2023/03/23 10:15:17;;;;;;;;;;;;;;;15.30;49.37;93495.03;5064207;28;19955;-39
2023/03/23 10:17:52;;;;;;;;;;;;;;;15.67;47.22;93483.34;5048941;28;19921;-39
2023/03/23 10:20:17;;;;;;;;;;;;;;;17.09;46.28;93484.00;5052416;28;19917;-39
2023/03/23 10:23:04;;;;;;;;;;;;;;;18.72;42.82;93481.13;5052157;28;19920;-39
2023/03/23 10:25:31;;;;;;;;;;;;;;;19.83;41.47;93473.34;5031358;28;20330;-39
2023/03/23 10:28:07;;;;;;;;;;;;;;;18.79;40.58;93487.84;5032055;28;19921;-39
2023/03/23 10:31:01;;;;;;;;;;;;;;;17.30;40.44;93486.88;5032097;28;20425;-39
2023/03/23 10:33:27;;;;;;;;;;;;;;;15.87;44.03;93486.91;5036711;28;19920;-39
2023/03/23 10:36:00;;;;;;;;;;;;;;;15.11;45.17;93479.72;5051784;28;19913;-39
2023/03/23 10:38:27;;;;;;;;;;;;;;;15.15;45.03;93479.28;5066767;28;19923;-39
2023/03/23 10:40:58;;;;;;;;;;;;;;;17.20;41.32;93477.06;5067699;28;19943;-39
2023/03/23 10:43:23;;;;;;;;;;;;;;;18.35;39.46;93479.31;5067269;28;19913;-39
2023/03/23 10:45:52;;;;;;;;;;;;;;;18.69;39.83;93473.22;5051630;28;19923;-39
2023/03/23 10:48:19;;;;;;;;;;;;;;;18.62;37.41;93465.78;5051648;28;19923;-39
2023/03/23 10:50:46;;;;;;;;;;;;;;;18.89;38.47;93464.03;5051771;28;19913;-39
2023/03/23 10:53:19;;;;;;;;;;;;;;;18.81;38.37;93460.00;5049734;28;19920;-39
2023/03/23 10:55:46;;;;;;;;;;;;;;;17.59;37.85;93475.66;5041517;28;19912;-39
2023/03/23 10:58:21;;;;;;;;;;;;;;;18.25;38.45;93467.50;5066590;28;19917;-39
2023/03/23 11:00:47;;;;;;;;;;;;;;;18.67;36.39;93464.69;5051342;28;20324;-39
2023/03/23 11:03:16;;;;;;;;;;;;;;;19.44;38.72;93461.88;5066785;28;20027;-39
2023/03/23 11:06:08;;;;;;;;;;;;;;;19.13;34.50;93467.63;5051552;28;20373;-39
2023/03/23 11:08:35;;;;;;;;;;;;;;;19.80;37.41;93460.53;5050086;28;19952;-39
2023/03/23 11:11:11;;;;;;;;;;;;;;;20.19;37.19;93465.03;5066517;28;20004;-39
2023/03/23 11:13:39;;;;;;;;;;;;;;;20.94;37.74;93450.41;5051133;28;19916;-39
2023/03/23 11:16:05;;;;;;;;;;;;;;;20.89;36.27;93456.44;5051165;28;20000;-39
2023/03/23 11:18:35;;;;;;;;;;;;;;;19.91;37.42;93443.00;5051046;28;20416;-39
2023/03/23 11:21:01;;;;;;;;;;;;;;;17.17;42.47;93453.16;5051096;28;19938;-39
2023/03/23 11:23:30;;;;;;;;;;;;;;;17.29;44.05;93451.19;5033296;28;20413;-39
2023/03/23 11:25:57;;;;;;;;;;;;;;;16.87;41.91;93439.88;5046190;28;20011;-39
2023/03/23 11:28:25;;;;;;;;;;;;;;;16.84;42.66;93438.25;5030853;28;19920;-39
2023/03/23 11:30:52;;;;;;;;;;;;;;;17.81;43.21;93445.69;5046015;28;20007;-38
2023/03/23 11:33:19;;;;;;;;;;;;;;;18.86;40.17;93434.47;5034349;28;19919;-39
2023/03/23 11:35:45;;;;;;;;;;;;;;;19.52;41.22;93442.75;5050637;28;19963;-39
2023/03/23 11:38:16;;;;;;;;;;;;;;;20.07;38.10;93430.69;5050894;28;19917;-39
2023/03/23 11:40:49;;;;;;;;;;;;;;;20.34;38.63;93430.16;5066040;28;20646;-39
2023/03/23 11:43:18;;;;;;;;;;;;;;;20.20;40.21;93430.09;5066158;28;19920;-39
2023/03/23 11:45:50;;;;;;;;;;;;;;;20.91;38.61;93417.25;5066021;28;19990;-39
2023/03/23 11:48:20;;;;;;;;;;;;;;;20.91;38.88;93423.59;5050758;28;19913;-39
2023/03/23 11:50:48;;;;;;;;;;;;;;;20.13;37.28;93425.44;5065491;28;19919;-39
2023/03/23 11:53:20;;;;;;;;;;;;;;;18.68;39.44;93415.81;5033043;28;20573;-39
2023/03/23 11:55:45;;;;;;;;;;;;;;;18.84;38.41;93414.03;5040627;28;19916;-39
2023/03/23 11:58:15;;;;;;;;;;;;;;;19.55;39.14;93417.09;5050264;28;20470;-39
2023/03/23 12:00:42;;;;;;;;;;;;;;;19.80;35.93;93407.31;5049990;28;20042;-39
2023/03/23 12:03:08;;;;;;;;;;;;;;;19.63;35.92;93403.56;5050350;28;19917;-39
2023/03/23 12:05:33;;;;;;;;;;;;;;;18.82;36.47;93411.09;5065457;28;19978;-39
2023/03/23 12:08:06;;;;;;;;;;;;;;;18.76;36.73;93416.31;5050018;28;19912;-39
2023/03/23 12:10:35;;;;;;;;;;;;;;;17.91;40.06;93408.00;5050387;28;19966;-38
2023/03/23 12:13:01;;;;;;;;;;;;;;;18.41;41.21;93404.97;5049984;28;19999;-39
2023/03/23 12:15:36;;;;;;;;;;;;;;;18.99;37.91;93399.59;5050173;28;20020;-39
2023/03/23 12:18:16;;;;;;;;;;;;;;;17.96;39.87;93417.38;5045891;28;19935;-39
2023/03/23 12:20:45;;;;;;;;;;;;;;;17.13;42.79;93413.84;5029988;28;20015;-39
2023/03/23 12:23:22;;;;;;;;;;;;;;;17.27;44.21;93400.84;5030181;28;20373;-38
2023/03/23 12:25:57;;;;;;;;;;;;;;;17.63;40.78;93408.19;5029746;28;19917;-39
2023/03/23 12:28:32;;;;;;;;;;;;;;;17.87;43.44;93418.16;5029761;28;19920;-39
2023/03/23 12:31:06;;;;;;;;;;;;;;;18.37;39.41;93410.31;5029270;28;19935;-38
2023/03/23 12:33:37;;;;;;;;;;;;;;;18.47;41.19;93413.81;5035598;28;19929;-38
2023/03/23 12:36:05;;;;;;;;;;;;;;;18.32;42.19;93408.56;5049431;28;20655;-39
2023/03/23 12:38:31;;;;;;;;;;;;;;;18.61;39.99;93409.09;5049847;28;20316;-39
2023/03/23 12:41:03;;;;;;;;;;;;;;;19.00;42.52;93408.72;5049108;28;19917;-39
2023/03/23 12:43:34;;;;;;;;;;;;;;;19.00;41.26;93405.91;5049451;28;20389;-39
2023/03/23 12:46:00;;;;;;;;;;;;;;;19.19;42.76;93405.72;5065119;28;20391;-39
2023/03/23 12:48:29;;;;;;;;;;;;;;;18.68;42.25;93404.63;5049808;28;19944;-39